createdAt,value
2022-11-02T00:01:58.120Z,83.96
2022-11-02T00:04:24.930Z,83.95
2022-11-02T00:06:51.570Z,83.64
2022-11-02T00:09:18.170Z,83.70
2022-11-02T00:11:44.767Z,83.64
2022-11-02T00:14:11.320Z,83.91
2022-11-02T00:16:38.601Z,83.81
2022-11-02T00:19:05.467Z,84.07
2022-11-02T00:21:32.101Z,83.62
2022-11-02T00:23:59.011Z,83.31
2022-11-02T00:26:26.344Z,83.29
2022-11-02T00:28:53.502Z,83.89
2022-11-02T00:31:20.623Z,83.57
2022-11-02T00:33:47.387Z,83.81
2022-11-02T00:36:14.025Z,83.62
2022-11-02T00:38:40.689Z,83.64
2022-11-02T00:41:07.376Z,83.61
2022-11-02T00:43:33.965Z,83.97
2022-11-02T00:46:01.559Z,83.56
2022-11-02T00:48:28.511Z,83.77
2022-11-02T00:50:55.419Z,83.93
2022-11-02T00:53:22.006Z,84.14
2022-11-02T00:55:48.625Z,84.13
2022-11-02T00:58:15.232Z,84.03
2022-11-02T01:00:41.966Z,84.02
2022-11-02T01:03:08.728Z,84.62
2022-11-02T01:05:35.287Z,84.05
2022-11-02T01:08:02.176Z,84.40
2022-11-02T01:10:28.983Z,84.00
2022-11-02T01:12:55.733Z,84.22
2022-11-02T01:15:22.417Z,84.31
2022-11-02T01:17:48.984Z,84.48
2022-11-02T01:20:15.531Z,84.44
2022-11-02T01:22:42.166Z,84.32
2022-11-02T01:25:09.234Z,84.46
2022-11-02T01:27:35.803Z,84.52
2022-11-02T01:30:04.233Z,84.73
2022-11-02T01:32:30.908Z,84.26
2022-11-02T01:34:57.601Z,84.23
2022-11-02T01:37:24.344Z,83.70
2022-11-02T01:39:50.927Z,83.86
2022-11-02T01:42:21.794Z,84.41
2022-11-02T01:44:48.447Z,83.87
2022-11-02T01:47:25.522Z,83.81
2022-11-02T01:49:56.257Z,84.03
2022-11-02T01:52:27.329Z,84.39
2022-11-02T01:55:07.103Z,84.33
2022-11-02T01:57:33.980Z,84.01
2022-11-02T02:00:05.811Z,83.87
2022-11-02T02:02:32.709Z,84.27
2022-11-02T02:05:09.755Z,84.42
2022-11-02T02:07:38.226Z,84.02
2022-11-02T02:10:05.703Z,83.92
2022-11-02T02:12:32.387Z,83.96
2022-11-02T02:14:59.428Z,83.70
2022-11-02T02:17:32.337Z,84.40
2022-11-02T02:20:02.107Z,84.52
2022-11-02T02:22:50.592Z,84.59
2022-11-02T02:25:51.135Z,84.62
2022-11-02T02:28:33.046Z,84.70
2022-11-02T02:31:06.212Z,84.94
2022-11-02T02:33:39.214Z,84.78
2022-11-02T02:36:10.606Z,84.70
2022-11-02T02:39:14.509Z,84.79
2022-11-02T02:41:47.490Z,85.05
2022-11-02T02:44:19.773Z,84.67
2022-11-02T02:46:57.033Z,85.06
2022-11-02T02:49:28.358Z,85.35
2022-11-02T02:51:56.013Z,85.20
2022-11-02T02:54:25.400Z,85.27
2022-11-02T02:56:56.321Z,85.71
2022-11-02T02:59:34.363Z,85.91
2022-11-02T03:02:01.134Z,85.54
2022-11-02T03:04:27.793Z,85.33
2022-11-02T03:06:56.264Z,85.46
2022-11-02T03:09:40.088Z,85.62
2022-11-02T03:12:25.845Z,85.58
2022-11-02T03:14:55.374Z,86.11
2022-11-02T03:17:36.690Z,85.85
2022-11-02T03:20:08.773Z,86.09
2022-11-02T03:23:09.358Z,86.36
2022-11-02T03:25:56.331Z,86.35
2022-11-02T03:28:36.037Z,86.50
2022-11-02T03:31:44.566Z,86.30
2022-11-02T03:34:24.843Z,87.22
2022-11-02T03:36:54.938Z,87.11
2022-11-02T03:39:35.597Z,86.66
2022-11-02T03:42:02.413Z,86.24
2022-11-02T03:44:29.051Z,86.61
2022-11-02T03:46:58.765Z,86.60
2022-11-02T03:49:25.548Z,86.58
2022-11-02T03:51:52.287Z,86.83
2022-11-02T03:54:43.307Z,86.77
2022-11-02T03:57:12.045Z,86.58
2022-11-02T03:59:38.626Z,86.38
2022-11-02T04:02:05.351Z,86.07
2022-11-02T04:04:32.028Z,85.76
2022-11-02T04:06:58.676Z,86.04
2022-11-02T04:09:25.356Z,86.54
2022-11-02T04:12:10.704Z,86.10
2022-11-02T04:14:40.256Z,86.48
2022-11-02T04:17:26.712Z,85.68
2022-11-02T04:19:53.513Z,86.19
2022-11-02T04:22:38.836Z,86.09
2022-11-02T04:25:18.837Z,86.50
2022-11-02T04:27:47.563Z,86.10
2022-11-02T04:30:15.362Z,86.00
2022-11-02T04:33:04.748Z,86.04
2022-11-02T04:35:31.500Z,86.31
2022-11-02T04:38:17.533Z,85.90
2022-11-02T04:40:44.347Z,85.47
2022-11-02T04:43:11.031Z,85.14
2022-11-02T04:45:37.795Z,85.51
2022-11-02T04:48:08.307Z,85.38
2022-11-02T04:50:35.411Z,84.42
2022-11-02T04:53:02.959Z,84.66
2022-11-02T04:55:29.715Z,85.04
2022-11-02T04:57:56.364Z,85.01
2022-11-02T05:00:23.617Z,83.83
2022-11-02T05:02:50.451Z,83.41
2022-11-02T05:05:17.983Z,83.78
2022-11-02T05:07:44.964Z,82.99
2022-11-02T05:10:11.851Z,82.76
2022-11-02T05:12:38.499Z,84.03
2022-11-02T05:15:05.733Z,84.24
2022-11-02T05:17:32.308Z,84.78
2022-11-02T05:19:59.036Z,85.18
2022-11-02T05:22:25.632Z,84.71
2022-11-02T05:24:52.268Z,85.37
2022-11-02T05:27:18.932Z,86.05
2022-11-02T05:29:45.514Z,85.88
2022-11-02T05:32:12.290Z,86.64
2022-11-02T05:34:38.869Z,87.06
2022-11-02T05:37:05.501Z,86.46
2022-11-02T05:39:32.272Z,86.28
2022-11-02T05:41:58.868Z,86.39
2022-11-02T05:44:25.502Z,85.60
2022-11-02T05:46:52.067Z,84.41
2022-11-02T05:49:18.671Z,84.19
2022-11-02T05:51:45.396Z,84.15
2022-11-02T05:54:12.070Z,84.88
2022-11-02T05:56:38.824Z,85.30
2022-11-02T05:59:05.449Z,85.76
2022-11-02T06:01:32.274Z,85.28
2022-11-02T06:03:59.017Z,85.61
2022-11-02T06:06:25.661Z,86.20
2022-11-02T06:08:52.278Z,86.28
2022-11-02T06:11:19.020Z,86.87
2022-11-02T06:13:49.414Z,87.56
2022-11-02T06:16:20.110Z,87.53
2022-11-02T06:18:49.435Z,87.43
2022-11-02T06:21:15.999Z,87.41
2022-11-02T06:23:43.275Z,87.38
2022-11-02T06:26:10.157Z,88.40
2022-11-02T06:28:36.796Z,87.61
2022-11-02T06:31:03.375Z,88.14
2022-11-02T06:33:30.065Z,88.09
2022-11-02T06:35:57.357Z,87.71
2022-11-02T06:38:23.961Z,88.09
2022-11-02T06:41:00.503Z,88.13
2022-11-02T06:43:27.070Z,88.02
2022-11-02T06:45:57.335Z,88.12
2022-11-02T06:48:26.616Z,88.50
2022-11-02T06:50:57.680Z,88.48
2022-11-02T06:53:24.719Z,88.74
2022-11-02T06:55:58.124Z,89.13
2022-11-02T06:58:25.266Z,89.10
2022-11-02T07:00:57.568Z,90.21
2022-11-02T07:03:24.198Z,90.02
2022-11-02T07:05:52.223Z,90.72
2022-11-02T07:08:19.270Z,90.49
2022-11-02T07:10:45.975Z,90.87
2022-11-02T07:13:12.775Z,91.56
2022-11-02T07:15:39.880Z,90.95
2022-11-02T07:18:06.879Z,90.84
2022-11-02T07:20:33.637Z,91.03
2022-11-02T07:23:00.829Z,91.00
2022-11-02T07:25:28.662Z,91.95
2022-11-02T07:27:55.810Z,91.48
2022-11-02T07:30:22.649Z,91.57
2022-11-02T07:32:49.616Z,91.53
2022-11-02T07:35:17.545Z,91.50
2022-11-02T07:37:44.312Z,92.00
2022-11-02T07:40:12.157Z,91.55
2022-11-02T07:42:44.700Z,91.52
2022-11-02T07:45:11.911Z,90.69
2022-11-02T07:47:43.661Z,90.82
2022-11-02T07:50:10.217Z,90.42
2022-11-02T07:52:44.102Z,90.54
2022-11-02T07:55:10.908Z,90.06
2022-11-02T07:57:37.602Z,89.74
2022-11-02T08:00:04.993Z,89.07
2022-11-02T08:02:31.815Z,89.11
2022-11-02T08:04:58.462Z,89.17
2022-11-02T08:07:25.114Z,89.08
2022-11-02T08:09:51.754Z,88.45
2022-11-02T08:12:18.496Z,88.08
2022-11-02T08:14:45.208Z,87.50
2022-11-02T08:17:11.829Z,87.16
2022-11-02T08:19:38.456Z,86.75
2022-11-02T08:22:05.141Z,86.41
2022-11-02T08:24:31.695Z,85.86
2022-11-02T08:26:58.342Z,85.90
2022-11-02T08:29:24.928Z,85.14
2022-11-02T08:31:51.703Z,84.83
2022-11-02T08:34:18.294Z,84.72
2022-11-02T08:36:44.940Z,84.47
2022-11-02T08:39:17.489Z,83.35
2022-11-02T08:41:45.426Z,82.79
2022-11-02T08:44:12.197Z,82.58
2022-11-02T08:46:38.776Z,81.82
2022-11-02T08:49:05.410Z,81.18
2022-11-02T08:51:32.041Z,79.72
2022-11-02T08:53:58.606Z,79.43
2022-11-02T08:56:25.278Z,78.21
2022-11-02T08:58:51.859Z,77.85
2022-11-02T09:01:18.546Z,77.06
2022-11-02T09:03:45.239Z,76.60
2022-11-02T09:06:11.868Z,75.96
2022-11-02T09:08:38.469Z,75.56
2022-11-02T09:11:05.290Z,73.55
2022-11-02T09:13:31.942Z,72.73
2022-11-02T09:15:59.314Z,73.09
2022-11-02T09:18:26.043Z,73.33
2022-11-02T09:20:52.721Z,73.21
2022-11-02T09:23:20.475Z,72.30
2022-11-02T09:25:47.358Z,71.74
2022-11-02T09:28:15.652Z,70.95
2022-11-02T09:30:42.387Z,71.13
2022-11-02T09:33:09.215Z,71.75
2022-11-02T09:35:41.188Z,71.45
2022-11-02T09:38:07.822Z,72.01
2022-11-02T09:41:02.442Z,72.51
2022-11-02T09:44:07.730Z,73.35
2022-11-02T09:46:40.292Z,73.70
2022-11-02T09:49:17.590Z,73.82
2022-11-02T09:51:55.284Z,73.30
2022-11-02T09:54:29.391Z,73.24
2022-11-02T09:56:58.374Z,73.51
2022-11-02T09:59:25.971Z,73.56
2022-11-02T10:02:16.790Z,73.64
2022-11-02T10:05:05.023Z,74.25
2022-11-02T10:07:49.857Z,73.96
2022-11-02T10:10:22.942Z,73.85
2022-11-02T10:13:12.139Z,73.79
2022-11-02T10:15:45.257Z,73.85
2022-11-02T10:18:15.065Z,73.88
2022-11-02T10:20:44.354Z,73.80
2022-11-02T10:23:23.221Z,73.67
2022-11-02T10:25:49.945Z,74.45
2022-11-02T10:28:21.884Z,74.25
2022-11-02T10:30:48.609Z,73.84
2022-11-02T10:33:18.768Z,72.70
2022-11-02T10:36:21.910Z,72.40
2022-11-02T10:39:16.375Z,71.26
2022-11-02T10:42:01.564Z,71.27
2022-11-02T10:44:46.250Z,71.24
2022-11-02T10:47:18.384Z,71.90
2022-11-02T10:50:17.484Z,72.25
2022-11-02T10:52:45.232Z,71.88
2022-11-02T10:55:19.499Z,70.66
2022-11-02T10:57:46.240Z,70.66
2022-11-02T11:00:26.711Z,70.73
2022-11-02T11:03:04.572Z,70.69
2022-11-02T11:05:32.456Z,70.26
2022-11-02T11:08:00.644Z,69.89
2022-11-02T11:10:27.763Z,69.48
2022-11-02T11:12:55.460Z,69.52
2022-11-02T11:20:59.741Z,67.86
2022-11-02T11:23:26.604Z,67.66
2022-11-02T11:26:08.473Z,67.30
2022-11-02T11:28:41.086Z,67.88
2022-11-02T11:31:12.241Z,68.50
2022-11-02T11:33:55.628Z,68.18
2022-11-02T11:36:28.279Z,68.37
2022-11-02T11:38:57.552Z,68.63
2022-11-02T11:41:27.095Z,68.81
2022-11-02T11:43:53.714Z,69.32
2022-11-02T11:46:21.679Z,68.56
2022-11-02T11:48:56.144Z,68.24
2022-11-02T11:51:30.052Z,68.66
2022-11-02T11:54:24.902Z,69.39
2022-11-02T11:56:52.671Z,69.25
2022-11-02T11:59:41.148Z,68.96
2022-11-02T12:02:24.210Z,69.21
2022-11-02T12:04:51.510Z,68.33
2022-11-02T12:07:57.021Z,69.23
2022-11-02T12:10:52.826Z,68.87
2022-11-02T12:13:49.917Z,68.79
2022-11-02T12:16:16.404Z,68.93
2022-11-02T12:19:12.842Z,69.21
2022-11-02T12:22:06.738Z,69.85
2022-11-02T12:25:02.357Z,69.56
2022-11-02T12:27:52.192Z,69.59
2022-11-02T12:30:20.483Z,69.60
2022-11-02T12:33:06.771Z,69.59
2022-11-02T12:35:44.531Z,69.56
2022-11-02T12:38:23.555Z,69.39
2022-11-02T12:41:32.743Z,70.07
2022-11-02T12:44:31.200Z,69.75
2022-11-02T12:47:03.259Z,68.60
2022-11-02T12:49:38.930Z,68.10
2022-11-02T12:52:27.113Z,68.21
2022-11-02T12:54:56.557Z,69.40
2022-11-02T12:57:24.820Z,69.72
2022-11-02T12:59:56.227Z,69.90
2022-11-02T13:02:37.645Z,69.13
2022-11-02T13:05:08.540Z,69.57
2022-11-02T13:07:42.571Z,69.63
2022-11-02T13:10:22.968Z,69.51
2022-11-02T13:12:51.578Z,69.41
2022-11-02T13:15:19.953Z,69.22
2022-11-02T13:17:54.832Z,68.96
2022-11-02T13:20:28.867Z,69.72
2022-11-02T13:22:57.682Z,69.88
2022-11-02T13:25:35.179Z,70.15
2022-11-02T13:28:06.021Z,70.93
2022-11-02T13:30:32.849Z,70.48
2022-11-02T13:33:05.329Z,69.67
2022-11-02T13:35:36.272Z,69.98
2022-11-02T13:38:09.354Z,70.04
2022-11-02T13:40:45.062Z,70.08
2022-11-02T13:43:36.126Z,70.98
2022-11-02T13:46:02.643Z,70.04
2022-11-02T13:48:38.346Z,69.30
2022-11-02T13:51:08.194Z,69.23
2022-11-02T13:53:37.485Z,69.76
2022-11-02T13:56:08.801Z,70.55
2022-11-02T13:58:46.093Z,70.98
2022-11-02T14:01:12.758Z,69.80
2022-11-02T14:04:02.180Z,70.29
2022-11-02T14:06:29.187Z,69.25
2022-11-02T14:08:57.942Z,68.97
2022-11-02T14:11:27.156Z,69.49
2022-11-02T14:13:53.645Z,69.01
2022-11-02T14:16:58.858Z,68.49
2022-11-02T14:19:32.225Z,67.80
2022-11-02T14:21:58.915Z,68.15
2022-11-02T14:24:34.598Z,68.42
2022-11-02T14:27:02.365Z,68.64
2022-11-02T14:29:47.230Z,68.61
2022-11-02T14:32:37.786Z,68.96
2022-11-02T14:35:25.497Z,68.79
2022-11-02T14:38:04.674Z,68.60
2022-11-02T14:40:53.579Z,68.69
2022-11-02T14:43:40.771Z,68.68
2022-11-02T14:46:41.987Z,68.51
2022-11-02T14:49:22.690Z,68.78
2022-11-02T14:52:13.541Z,68.71
2022-11-02T14:54:47.165Z,68.66
2022-11-02T14:57:32.661Z,69.00
2022-11-02T15:00:00.354Z,69.39
2022-11-02T15:02:40.243Z,69.85
2022-11-02T15:05:31.796Z,69.93
2022-11-02T15:07:59.809Z,70.00
2022-11-02T15:10:32.747Z,70.28
2022-11-02T15:13:21.750Z,70.27
2022-11-02T15:15:51.252Z,70.41
2022-11-02T15:18:30.438Z,70.55
2022-11-02T15:21:12.824Z,71.04
2022-11-02T15:23:59.336Z,71.29
2022-11-02T15:26:29.696Z,71.50
2022-11-02T15:28:59.150Z,71.22
2022-11-02T15:31:26.557Z,71.33
2022-11-02T15:34:02.526Z,71.85
2022-11-02T15:36:33.091Z,72.66
2022-11-02T15:39:02.140Z,72.70
2022-11-02T15:41:44.631Z,72.76
2022-11-02T15:44:33.006Z,72.43
2022-11-02T15:47:11.139Z,73.23
2022-11-02T15:50:17.459Z,72.89
2022-11-02T15:53:21.632Z,73.44
2022-11-02T15:56:08.949Z,73.34
2022-11-02T15:58:57.491Z,73.35
2022-11-02T16:01:27.762Z,73.63
2022-11-02T16:03:58.574Z,73.67
2022-11-02T16:06:43.688Z,73.84
2022-11-02T16:09:30.852Z,74.66
2022-11-02T16:12:16.851Z,75.01
2022-11-02T16:14:44.163Z,74.17
2022-11-02T16:17:23.867Z,75.19
2022-11-02T16:19:50.886Z,75.16
2022-11-02T16:22:22.866Z,74.84
2022-11-02T16:24:49.488Z,75.20
2022-11-02T16:27:16.147Z,75.62
2022-11-02T16:29:42.995Z,75.65
2022-11-02T16:32:10.944Z,75.84
2022-11-02T16:34:37.759Z,75.95
2022-11-02T16:37:09.993Z,75.61
2022-11-02T16:39:38.654Z,74.97
2022-11-02T16:42:12.612Z,75.81
2022-11-02T16:44:39.239Z,76.40
2022-11-02T16:47:11.983Z,75.98
2022-11-02T16:49:53.498Z,76.47
2022-11-02T16:52:28.248Z,76.27
2022-11-02T16:54:54.848Z,75.94
2022-11-02T16:57:31.135Z,75.60
2022-11-02T17:00:01.802Z,75.89
2022-11-02T17:02:37.010Z,76.75
2022-11-02T17:05:06.564Z,76.65
2022-11-02T17:07:36.052Z,77.18
2022-11-02T17:10:03.474Z,76.84
2022-11-02T17:12:42.951Z,77.55
2022-11-02T17:15:23.160Z,77.64
2022-11-02T17:17:49.828Z,77.42
2022-11-02T17:20:21.592Z,77.98
2022-11-02T17:22:52.588Z,78.38
2022-11-02T17:25:29.792Z,78.16
2022-11-02T17:27:57.785Z,78.12
2022-11-02T17:30:30.253Z,78.31
2022-11-02T17:32:57.662Z,77.45
2022-11-02T17:35:27.219Z,78.02
2022-11-02T17:37:54.430Z,78.07
2022-11-02T17:40:22.123Z,78.21
2022-11-02T17:43:01.063Z,78.11
2022-11-02T17:45:33.247Z,77.87
2022-11-02T17:48:01.464Z,78.11
2022-11-02T17:50:29.305Z,78.29
2022-11-02T17:52:57.024Z,78.31
2022-11-02T17:55:26.568Z,77.78
2022-11-02T17:57:53.727Z,78.03
2022-11-02T18:00:20.621Z,77.51
2022-11-02T18:02:52.879Z,78.67
2022-11-02T18:05:27.465Z,79.10
2022-11-02T18:07:54.949Z,79.32
2022-11-02T18:10:23.111Z,80.02
2022-11-02T18:12:51.996Z,80.50
2022-11-02T18:15:20.887Z,80.17
2022-11-02T18:17:48.115Z,80.10
2022-11-02T18:20:15.075Z,80.52
2022-11-02T18:22:41.690Z,80.28
2022-11-02T18:25:10.494Z,79.65
2022-11-02T18:27:37.963Z,79.96
2022-11-02T18:30:05.985Z,80.32
2022-11-02T18:32:32.796Z,80.00
2022-11-02T18:34:59.664Z,80.21
2022-11-02T18:37:26.275Z,79.96
2022-11-02T18:39:52.907Z,79.96
2022-11-02T18:42:35.286Z,79.74
2022-11-02T18:45:02.039Z,80.35
2022-11-02T18:47:28.602Z,79.92
2022-11-02T18:49:55.468Z,80.18
2022-11-02T18:52:22.499Z,80.10
2022-11-02T18:54:49.654Z,80.21
2022-11-02T18:57:16.369Z,80.36
2022-11-02T18:59:43.305Z,80.63
2022-11-02T19:02:10.560Z,80.03
2022-11-02T19:04:37.323Z,80.86
2022-11-02T19:07:22.417Z,80.32
2022-11-02T19:09:49.126Z,79.88
2022-11-02T19:12:18.093Z,79.69
2022-11-02T19:14:46.030Z,79.63
2022-11-02T19:17:13.449Z,79.34
2022-11-02T19:19:41.209Z,79.82
2022-11-02T19:22:08.032Z,79.14
2022-11-02T19:24:34.622Z,78.47
2022-11-02T19:27:01.207Z,78.79
2022-11-02T19:29:27.970Z,78.77
2022-11-02T19:31:54.675Z,78.92
2022-11-02T19:34:21.368Z,78.83
2022-11-02T19:36:47.959Z,78.42
2022-11-02T19:39:14.644Z,78.17
2022-11-02T19:41:41.256Z,78.36
2022-11-02T19:44:07.892Z,78.27
2022-11-02T19:46:34.622Z,78.82
2022-11-02T19:49:01.345Z,78.97
2022-11-02T19:51:31.282Z,79.90
2022-11-02T19:53:59.402Z,79.50
2022-11-02T19:56:27.632Z,79.40
2022-11-02T19:58:54.528Z,79.83
2022-11-02T20:01:23.225Z,80.29
2022-11-02T20:03:50.269Z,80.54
2022-11-02T20:06:21.903Z,80.56
2022-11-02T20:08:55.986Z,81.56
2022-11-02T20:11:23.521Z,80.17
2022-11-02T20:13:50.147Z,80.92
2022-11-02T20:16:18.514Z,80.93
2022-11-02T20:18:46.285Z,80.24
2022-11-02T20:21:16.684Z,80.60
2022-11-02T20:23:43.736Z,81.43
2022-11-02T20:26:12.726Z,82.12
2022-11-02T20:28:41.146Z,82.45
2022-11-02T20:31:28.667Z,83.25
2022-11-02T20:33:55.510Z,82.74
2022-11-02T20:36:22.179Z,82.94
2022-11-02T20:38:49.613Z,82.85
2022-11-02T20:41:17.663Z,83.02
2022-11-02T20:43:45.293Z,83.37
2022-11-02T20:49:13.747Z,82.84
2022-11-02T20:51:48.151Z,82.16
2022-11-02T20:54:14.803Z,81.88
2022-11-02T20:56:41.453Z,81.70
2022-11-02T20:59:08.120Z,82.13
2022-11-02T21:01:35.274Z,81.97
2022-11-02T21:04:02.021Z,82.29
2022-11-02T21:06:28.673Z,82.75
2022-11-02T21:08:55.288Z,82.20
2022-11-02T21:11:40.688Z,82.19
2022-11-02T21:14:07.270Z,82.40
2022-11-02T21:16:34.024Z,82.43
2022-11-02T21:19:00.700Z,82.46
2022-11-02T21:21:27.366Z,82.99
2022-11-02T21:23:55.468Z,83.35
2022-11-02T21:26:22.160Z,83.92
2022-11-02T21:28:48.779Z,83.59
2022-11-02T21:31:17.214Z,83.06
2022-11-02T21:33:44.542Z,82.20
2022-11-02T21:36:11.443Z,81.43
2022-11-02T21:38:38.450Z,80.81
2022-11-02T21:41:06.142Z,80.82
2022-11-02T21:43:34.649Z,82.27
2022-11-02T21:46:01.732Z,82.50
2022-11-02T21:48:33.263Z,83.31
2022-11-02T21:51:09.751Z,82.90
2022-11-02T21:53:41.017Z,83.09
2022-11-02T21:56:09.231Z,82.55
2022-11-02T21:58:35.919Z,81.89
2022-11-02T22:01:25.817Z,82.01
2022-11-02T22:03:52.769Z,82.16
2022-11-02T22:06:20.740Z,82.39
2022-11-02T22:08:47.643Z,83.22
2022-11-02T22:11:21.739Z,83.32
2022-11-02T22:13:50.351Z,84.02
2022-11-02T22:16:18.136Z,84.30
2022-11-02T22:18:45.574Z,83.52
2022-11-02T22:21:12.616Z,83.78
2022-11-02T22:23:39.607Z,82.71
2022-11-02T22:26:07.984Z,82.04
2022-11-02T22:28:36.784Z,81.88
2022-11-02T22:31:17.047Z,82.21
2022-11-02T22:33:44.482Z,82.19
2022-11-02T22:36:13.600Z,82.51
2022-11-02T22:38:51.608Z,82.89
2022-11-02T22:41:19.580Z,83.14
2022-11-02T22:43:46.356Z,83.17
2022-11-02T22:46:14.927Z,83.49
2022-11-02T22:48:41.608Z,83.58
2022-11-02T22:51:08.586Z,83.15
2022-11-02T22:53:35.662Z,83.96
2022-11-02T22:56:12.227Z,84.03
2022-11-02T22:58:43.546Z,84.22
2022-11-02T23:01:18.892Z,84.73
2022-11-02T23:03:46.003Z,84.54
2022-11-02T23:06:12.766Z,84.05
2022-11-02T23:08:41.439Z,83.56
2022-11-02T23:11:24.211Z,83.17
2022-11-02T23:13:56.745Z,82.56
2022-11-02T23:16:42.701Z,82.22
2022-11-02T23:19:31.508Z,82.89
2022-11-02T23:22:21.563Z,83.01
2022-11-02T23:25:07.525Z,83.37
2022-11-02T23:27:55.428Z,82.80
2022-11-02T23:30:41.590Z,82.88
2022-11-02T23:33:08.588Z,83.48
2022-11-02T23:35:54.185Z,83.33
2022-11-02T23:38:54.586Z,82.60
2022-11-02T23:41:21.346Z,82.19
2022-11-02T23:43:48.237Z,82.51
2022-11-02T23:46:15.010Z,82.69
2022-11-02T23:48:42.044Z,82.55
2022-11-02T23:51:28.027Z,82.46
2022-11-02T23:54:13.214Z,82.97
2022-11-02T23:56:45.954Z,83.11
2022-11-02T23:59:16.023Z,83.10
